Time;durP1;ratioP1;P1;durP2;ratioP2;P2;SDS_P1;SDS_P2;PMS_P1;PMS_P2;Temp;Humidity;BMP_temperature;BMP_pressure;BME280_temperature;BME280_humidity;BME280_pressure;Samples;Min_cycle;Max_cycle;Signal;HPM_P1;HPM_P2
2023/09/24 00:02:04;;;;;;;13.43;8.85;;;;;;;;;;5005555;28;20053;-55
2023/09/24 00:04:31;;;;;;;13.48;9.45;;;;;;;;;;5003919;28;20077;-54
2023/09/24 00:06:57;;;;;;;17.15;9.77;;;;;;;;;;4995752;28;20726;-54
2023/09/24 00:09:23;;;;;;;17.98;9.73;;;;;;;;;;5006046;28;20041;-56
2023/09/24 00:11:49;;;;;;;18.00;10.43;;;;;;;;;;5022723;28;20026;-50
2023/09/24 00:14:15;;;;;;;22.40;10.48;;;;;;;;;;5005354;28;20413;-54
2023/09/24 00:16:41;;;;;;;17.98;10.00;;;;;;;;;;5018666;28;20118;-55
2023/09/24 00:19:07;;;;;;;18.88;9.80;;;;;;;;;;5033175;28;20030;-55
2023/09/24 00:21:33;;;;;;;19.40;9.90;;;;;;;;;;5011721;28;20041;-53
2023/09/24 00:23:59;;;;;;;18.42;9.80;;;;;;;;;;5011135;28;20056;-55
2023/09/24 00:26:25;;;;;;;16.77;9.43;;;;;;;;;;5025595;28;20050;-57
2023/09/24 00:28:52;;;;;;;17.25;10.02;;;;;;;;;;5027433;28;20029;-57
2023/09/24 00:31:18;;;;;;;48.45;29.02;;;;;;;;;;5000991;28;20050;-56
2023/09/24 00:33:44;;;;;;;33.47;21.48;;;;;;;;;;5027084;28;20147;-58
2023/09/24 00:36:10;;;;;;;24.23;14.73;;;;;;;;;;5027935;28;20530;-57
2023/09/24 00:38:37;;;;;;;18.92;11.07;;;;;;;;;;5029346;28;20030;-57
2023/09/24 00:41:03;;;;;;;14.70;9.40;;;;;;;;;;5026845;28;20048;-53
2023/09/24 00:43:33;;;;;;;17.67;9.32;;;;;;;;;;5032249;28;20033;-57
2023/09/24 00:46:02;;;;;;;12.27;8.43;;;;;;;;;;5010577;28;20474;-57
2023/09/24 00:48:30;;;;;;;15.20;9.13;;;;;;;;;;5030457;28;20047;-57
2023/09/24 00:51:03;;;;;;;17.73;9.00;;;;;;;;;;5036257;28;20430;-55
2023/09/24 00:53:30;;;;;;;12.50;8.32;;;;;;;;;;5032297;28;20388;-56
2023/09/24 00:55:56;;;;;;;13.88;8.52;;;;;;;;;;5028604;28;20034;-56
2023/09/24 00:58:26;;;;;;;14.43;7.70;;;;;;;;;;5021428;28;20080;-55
2023/09/24 01:00:53;;;;;;;12.40;8.15;;;;;;;;;;5022545;28;20041;-54
2023/09/24 01:03:22;;;;;;;12.55;8.18;;;;;;;;;;5001757;28;20957;-50
2023/09/24 01:05:49;;;;;;;17.27;8.00;;;;;;;;;;5014903;28;20021;-49
2023/09/24 01:08:16;;;;;;;17.60;8.60;;;;;;;;;;5005780;28;20045;-50
2023/09/24 01:10:47;;;;;;;14.43;8.13;;;;;;;;;;5008347;28;20117;-50
2023/09/24 01:13:15;;;;;;;15.07;8.02;;;;;;;;;;5026679;28;20037;-48
2023/09/24 01:15:44;;;;;;;12.15;7.78;;;;;;;;;;5025302;28;20029;-48
2023/09/24 01:18:09;;;;;;;12.52;8.05;;;;;;;;;;5024961;28;20401;-52
2023/09/24 01:20:36;;;;;;;13.10;7.95;;;;;;;;;;5026979;28;20068;-49
2023/09/24 01:23:03;;;;;;;11.43;7.20;;;;;;;;;;5025709;28;20037;-51
2023/09/24 01:25:33;;;;;;;12.10;6.97;;;;;;;;;;5025066;28;20041;-49
2023/09/24 01:27:59;;;;;;;13.68;7.25;;;;;;;;;;5021127;28;20654;-50
2023/09/24 01:30:28;;;;;;;12.80;7.53;;;;;;;;;;5024733;28;20100;-48
2023/09/24 01:32:54;;;;;;;11.85;7.30;;;;;;;;;;5027565;28;20041;-51
2023/09/24 01:35:27;;;;;;;11.75;7.35;;;;;;;;;;5018056;28;20044;-54
2023/09/24 01:37:54;;;;;;;13.52;8.10;;;;;;;;;;5018730;28;20030;-49
2023/09/24 01:40:21;;;;;;;12.75;7.30;;;;;;;;;;5020460;28;20448;-49
2023/09/24 01:42:48;;;;;;;12.70;7.32;;;;;;;;;;5022591;28;20036;-51
2023/09/24 01:45:16;;;;;;;13.05;7.10;;;;;;;;;;5021141;28;20577;-48
2023/09/24 01:47:44;;;;;;;13.90;7.35;;;;;;;;;;5006959;28;20179;-53
2023/09/24 01:50:10;;;;;;;12.98;7.95;;;;;;;;;;5009060;28;20087;-47
2023/09/24 01:52:37;;;;;;;11.23;7.40;;;;;;;;;;5005382;28;20041;-52
2023/09/24 01:55:03;;;;;;;13.40;6.90;;;;;;;;;;5016804;28;20075;-49
2023/09/24 01:57:29;;;;;;;16.27;7.97;;;;;;;;;;5021620;28;20041;-51
2023/09/24 02:00:21;;;;;;;12.52;7.35;;;;;;;;;;5021324;28;20045;-49
2023/09/24 02:02:44;;;;;;;13.88;6.95;;;;;;;;;;5016530;28;20038;-50
2023/09/24 02:05:11;;;;;;;14.40;6.70;;;;;;;;;;5015625;28;20049;-48
2023/09/24 02:07:40;;;;;;;15.30;6.60;;;;;;;;;;5018491;28;20124;-49
2023/09/24 02:10:12;;;;;;;11.77;6.72;;;;;;;;;;5014480;28;20045;-50
2023/09/24 02:12:38;;;;;;;10.27;6.65;;;;;;;;;;5001137;28;20026;-50
2023/09/24 02:15:18;;;;;;;10.27;6.57;;;;;;;;;;5009485;28;20515;-48
2023/09/24 02:17:44;;;;;;;15.70;7.25;;;;;;;;;;4994666;28;20493;-50
2023/09/24 02:20:22;;;;;;;12.40;7.43;;;;;;;;;;5029721;28;20084;-50
2023/09/24 02:22:49;;;;;;;11.52;7.20;;;;;;;;;;5014873;28;20480;-53
2023/09/24 02:25:21;;;;;;;11.80;7.10;;;;;;;;;;5012536;28;20029;-48
2023/09/24 02:27:53;;;;;;;12.02;7.40;;;;;;;;;;5002833;28;20098;-50
2023/09/24 02:30:19;;;;;;;12.52;7.65;;;;;;;;;;5027993;28;20033;-50
2023/09/24 02:32:46;;;;;;;12.52;7.70;;;;;;;;;;5021032;28;20404;-51
2023/09/24 02:35:13;;;;;;;11.98;7.32;;;;;;;;;;5025985;28;20488;-51
2023/09/24 02:37:40;;;;;;;15.07;8.07;;;;;;;;;;5031281;28;20037;-50
2023/09/24 02:40:14;;;;;;;13.38;7.72;;;;;;;;;;5023911;28;20374;-49
2023/09/24 02:42:41;;;;;;;12.85;7.35;;;;;;;;;;5015241;28;20103;-49
2023/09/24 02:45:08;;;;;;;14.52;7.63;;;;;;;;;;5026747;28;20029;-51
2023/09/24 02:47:34;;;;;;;15.60;7.65;;;;;;;;;;5014415;28;20087;-49
2023/09/24 02:50:00;;;;;;;14.13;8.05;;;;;;;;;;5016825;28;20700;-51
2023/09/24 02:52:27;;;;;;;13.05;7.90;;;;;;;;;;5025766;28;20616;-53
2023/09/24 02:54:54;;;;;;;11.98;7.47;;;;;;;;;;4996426;28;20337;-49
2023/09/24 02:57:20;;;;;;;13.00;8.23;;;;;;;;;;4992654;28;20072;-49
2023/09/24 02:59:46;;;;;;;14.02;8.20;;;;;;;;;;4993889;28;20552;-51
2023/09/24 03:02:12;;;;;;;13.02;8.15;;;;;;;;;;5014983;28;20116;-49
2023/09/24 03:04:38;;;;;;;11.48;7.97;;;;;;;;;;5010321;28;20552;-52
2023/09/24 03:07:07;;;;;;;14.60;7.60;;;;;;;;;;5000303;28;20053;-52
2023/09/24 03:09:33;;;;;;;16.67;8.20;;;;;;;;;;5001434;28;20056;-51
2023/09/24 03:11:59;;;;;;;14.57;7.68;;;;;;;;;;5010178;28;20301;-49
2023/09/24 03:14:25;;;;;;;12.25;7.40;;;;;;;;;;5001079;28;20045;-52
2023/09/24 03:16:51;;;;;;;13.07;7.40;;;;;;;;;;4998001;28;20041;-48
2023/09/24 03:19:17;;;;;;;16.77;7.70;;;;;;;;;;5001022;28;20512;-50
2023/09/24 03:21:43;;;;;;;11.63;7.28;;;;;;;;;;4997495;28;20034;-47
2023/09/24 03:24:14;;;;;;;15.85;7.10;;;;;;;;;;4995774;28;20045;-48
2023/09/24 03:26:40;;;;;;;13.45;7.03;;;;;;;;;;4998149;28;20357;-48
2023/09/24 03:29:06;;;;;;;14.27;8.27;;;;;;;;;;5011482;28;20140;-51
2023/09/24 03:31:33;;;;;;;14.27;7.38;;;;;;;;;;5014929;28;20041;-48
2023/09/24 03:33:59;;;;;;;11.10;7.03;;;;;;;;;;5012846;28;20424;-51
2023/09/24 03:36:25;;;;;;;14.82;7.65;;;;;;;;;;5015570;28;20394;-50
2023/09/24 03:38:51;;;;;;;11.25;6.95;;;;;;;;;;5000818;28;20038;-49
2023/09/24 03:41:17;;;;;;;12.13;7.05;;;;;;;;;;5001656;28;20128;-52
2023/09/24 03:43:43;;;;;;;15.27;7.07;;;;;;;;;;5002436;28;20124;-49
2023/09/24 03:46:09;;;;;;;10.73;6.95;;;;;;;;;;4995932;28;20052;-47
2023/09/24 03:48:36;;;;;;;13.90;6.78;;;;;;;;;;4999129;28;20137;-52
2023/09/24 03:51:02;;;;;;;10.95;7.00;;;;;;;;;;5002106;28;20041;-51
2023/09/24 03:53:29;;;;;;;14.95;7.60;;;;;;;;;;4990222;28;20042;-48
2023/09/24 03:55:55;;;;;;;12.32;6.90;;;;;;;;;;5002643;28;20053;-46
2023/09/24 03:58:21;;;;;;;12.40;6.75;;;;;;;;;;5003255;28;20176;-48
2023/09/24 04:00:47;;;;;;;11.60;6.47;;;;;;;;;;4991715;28;20141;-54
2023/09/24 04:03:14;;;;;;;14.15;7.28;;;;;;;;;;4997407;28;20037;-48
2023/09/24 04:05:40;;;;;;;9.98;6.60;;;;;;;;;;5003932;28;20463;-48
2023/09/24 04:08:06;;;;;;;10.93;7.22;;;;;;;;;;4998892;28;20041;-48
2023/09/24 04:10:32;;;;;;;12.32;6.32;;;;;;;;;;4997710;28;20038;-49
2023/09/24 04:13:00;;;;;;;13.18;6.82;;;;;;;;;;4995127;28;20746;-49
2023/09/24 04:15:29;;;;;;;10.93;6.55;;;;;;;;;;4995725;28;20042;-47
2023/09/24 04:17:56;;;;;;;14.15;6.75;;;;;;;;;;5000687;28;20037;-49
2023/09/24 04:20:22;;;;;;;12.20;6.70;;;;;;;;;;5018916;28;20060;-51
2023/09/24 04:22:49;;;;;;;12.32;6.63;;;;;;;;;;5018413;28;20045;-48
2023/09/24 04:25:17;;;;;;;11.95;6.22;;;;;;;;;;5016754;28;20869;-50
2023/09/24 04:27:43;;;;;;;23.27;6.85;;;;;;;;;;5014428;28;20072;-50
2023/09/24 04:30:16;;;;;;;15.80;5.78;;;;;;;;;;4993666;28;20037;-49
2023/09/24 04:32:43;;;;;;;11.35;5.93;;;;;;;;;;4991673;28;20358;-49
2023/09/24 04:35:10;;;;;;;14.82;6.40;;;;;;;;;;5027105;28;20160;-49
2023/09/24 04:37:37;;;;;;;12.68;6.15;;;;;;;;;;5029186;28;20126;-49
2023/09/24 04:40:05;;;;;;;12.88;6.13;;;;;;;;;;5025759;28;20123;-51
2023/09/24 04:42:31;;;;;;;9.73;6.25;;;;;;;;;;5017192;28;20512;-50
2023/09/24 04:44:57;;;;;;;9.93;6.78;;;;;;;;;;5010418;28;20049;-48
2023/09/24 04:47:23;;;;;;;15.20;6.22;;;;;;;;;;5009928;28;20410;-49
2023/09/24 04:49:49;;;;;;;8.85;6.30;;;;;;;;;;4999262;28;20046;-48
2023/09/24 04:52:15;;;;;;;11.13;6.30;;;;;;;;;;4999659;28;20054;-55
2023/09/24 04:54:41;;;;;;;12.40;5.95;;;;;;;;;;4996422;28;20149;-54
2023/09/24 04:57:09;;;;;;;10.02;5.07;;;;;;;;;;4995028;28;20645;-54
2023/09/24 04:59:35;;;;;;;11.00;5.35;;;;;;;;;;4994697;28;20472;-53
2023/09/24 05:02:01;;;;;;;11.50;5.00;;;;;;;;;;5025066;28;20057;-49
2023/09/24 05:04:27;;;;;;;13.23;5.43;;;;;;;;;;5018472;28;20492;-52
2023/09/24 05:06:54;;;;;;;11.70;4.90;;;;;;;;;;5016090;28;20039;-55
2023/09/24 05:09:21;;;;;;;10.65;5.00;;;;;;;;;;4997948;28;20113;-54
2023/09/24 05:11:47;;;;;;;15.02;5.05;;;;;;;;;;4999604;28;20042;-54
2023/09/24 05:14:13;;;;;;;9.27;4.80;;;;;;;;;;4983488;28;20112;-54
2023/09/24 05:16:39;;;;;;;13.18;5.78;;;;;;;;;;4990187;28;20037;-52
2023/09/24 05:19:07;;;;;;;7.97;4.60;;;;;;;;;;4995970;28;20037;-55
2023/09/24 05:21:33;;;;;;;13.60;5.20;;;;;;;;;;4992434;28;20155;-55
2023/09/24 05:23:59;;;;;;;8.90;4.75;;;;;;;;;;5008226;28;20087;-56
2023/09/24 05:26:25;;;;;;;10.40;5.50;;;;;;;;;;5029295;28;20033;-55
2023/09/24 05:28:51;;;;;;;9.35;5.40;;;;;;;;;;5013756;28;20030;-56
2023/09/24 05:31:17;;;;;;;12.15;5.22;;;;;;;;;;5012347;28;20038;-56
2023/09/24 05:33:47;;;;;;;10.80;4.90;;;;;;;;;;5024308;28;20082;-53
2023/09/24 05:36:13;;;;;;;8.48;4.97;;;;;;;;;;5018611;28;20745;-54
2023/09/24 05:38:39;;;;;;;10.95;5.50;;;;;;;;;;5017196;28;20060;-53
2023/09/24 05:41:06;;;;;;;12.02;5.60;;;;;;;;;;5015544;28;20040;-54
2023/09/24 05:43:32;;;;;;;12.73;5.07;;;;;;;;;;5017507;28;20123;-55
2023/09/24 05:45:58;;;;;;;13.57;5.72;;;;;;;;;;5017668;28;20029;-54
2023/09/24 05:48:24;;;;;;;11.05;5.05;;;;;;;;;;5015404;28;20045;-54
2023/09/24 05:50:50;;;;;;;12.82;5.10;;;;;;;;;;5022670;28;20045;-55
2023/09/24 05:53:16;;;;;;;16.23;5.25;;;;;;;;;;5020179;28;20099;-55
2023/09/24 05:55:52;;;;;;;17.70;5.63;;;;;;;;;;4993580;28;20152;-55
2023/09/24 05:58:18;;;;;;;13.30;5.88;;;;;;;;;;4988005;28;20049;-56
2023/09/24 06:00:45;;;;;;;14.85;5.78;;;;;;;;;;4989003;28;20042;-56
2023/09/24 06:03:13;;;;;;;12.63;5.72;;;;;;;;;;5015343;28;20029;-51
2023/09/24 06:05:39;;;;;;;10.02;5.30;;;;;;;;;;5020809;28;20039;-51
2023/09/24 06:08:05;;;;;;;12.60;5.43;;;;;;;;;;5017172;28;20690;-50
2023/09/24 06:10:32;;;;;;;14.15;6.43;;;;;;;;;;5028133;28;20032;-48
2023/09/24 06:12:58;;;;;;;15.65;6.38;;;;;;;;;;5013920;28;20608;-51
2023/09/24 06:15:24;;;;;;;14.40;6.13;;;;;;;;;;5016050;28;20113;-49
2023/09/24 06:17:50;;;;;;;12.30;6.75;;;;;;;;;;5013323;28;20279;-49
2023/09/24 06:20:16;;;;;;;15.07;7.25;;;;;;;;;;5019879;28;20048;-49
2023/09/24 06:22:42;;;;;;;13.15;6.53;;;;;;;;;;5015329;28;20038;-52
2023/09/24 06:25:09;;;;;;;14.98;7.45;;;;;;;;;;5022355;28;20432;-54
2023/09/24 06:27:35;;;;;;;14.50;7.45;;;;;;;;;;5021292;28;20442;-54
2023/09/24 06:30:04;;;;;;;15.27;8.00;;;;;;;;;;5020991;28;20171;-52
2023/09/24 06:32:30;;;;;;;18.67;8.90;;;;;;;;;;5011652;28;20061;-53
2023/09/24 06:34:56;;;;;;;16.90;9.57;;;;;;;;;;5011883;28;20128;-54
2023/09/24 06:37:22;;;;;;;21.63;9.10;;;;;;;;;;5016283;28;20052;-53
2023/09/24 06:39:48;;;;;;;27.92;9.05;;;;;;;;;;5022797;28;20067;-52
2023/09/24 06:42:13;;;;;;;33.75;12.48;;;;;;;;;;5016526;28;20042;-53
2023/09/24 06:44:39;;;;;;;21.90;10.52;;;;;;;;;;5023573;28;20045;-53
2023/09/24 06:47:06;;;;;;;24.17;10.95;;;;;;;;;;5017488;28;20041;-52
2023/09/24 06:49:32;;;;;;;23.42;10.73;;;;;;;;;;5039982;28;20116;-54
2023/09/24 06:51:58;;;;;;;22.08;10.48;;;;;;;;;;5015215;28;20033;-52
2023/09/24 06:54:24;;;;;;;27.23;11.55;;;;;;;;;;5023626;28;20029;-54
2023/09/24 06:56:50;;;;;;;18.85;10.50;;;;;;;;;;5016014;28;20037;-54
2023/09/24 06:59:16;;;;;;;26.90;12.43;;;;;;;;;;5014297;28;20034;-53
2023/09/24 07:01:42;;;;;;;24.45;11.18;;;;;;;;;;5009539;28;20444;-54
2023/09/24 07:04:09;;;;;;;19.10;10.05;;;;;;;;;;4997719;28;20034;-54
2023/09/24 07:06:35;;;;;;;20.02;10.50;;;;;;;;;;4998465;28;20042;-55
2023/09/24 07:09:01;;;;;;;18.58;9.93;;;;;;;;;;4996400;28;20033;-52
2023/09/24 07:11:30;;;;;;;24.25;10.20;;;;;;;;;;5013522;28;20036;-53
2023/09/24 07:13:56;;;;;;;16.02;9.50;;;;;;;;;;5001630;28;20030;-55
2023/09/24 07:16:23;;;;;;;18.65;9.52;;;;;;;;;;4998669;28;20034;-54
2023/09/24 07:18:52;;;;;;;18.23;9.73;;;;;;;;;;4992419;28;20144;-55
2023/09/24 07:21:20;;;;;;;27.77;9.80;;;;;;;;;;5005251;28;20064;-54
2023/09/24 07:23:47;;;;;;;17.70;8.75;;;;;;;;;;5000470;28;20057;-55
2023/09/24 07:26:13;;;;;;;20.17;9.00;;;;;;;;;;4995732;28;20030;-52
2023/09/24 07:28:39;;;;;;;29.95;10.73;;;;;;;;;;4991807;28;20093;-53
2023/09/24 07:31:15;;;;;;;17.85;9.07;;;;;;;;;;4989606;28;20694;-54
2023/09/24 07:33:42;;;;;;;19.20;8.93;;;;;;;;;;5004938;28;20674;-47
2023/09/24 07:36:09;;;;;;;17.50;7.63;;;;;;;;;;5003174;28;20390;-47
2023/09/24 07:38:35;;;;;;;18.30;8.90;;;;;;;;;;4985653;28;20070;-47
2023/09/24 07:41:01;;;;;;;17.38;8.85;;;;;;;;;;4981746;28;20238;-50
2023/09/24 07:43:27;;;;;;;22.13;8.65;;;;;;;;;;5007373;28;20711;-47
2023/09/24 07:45:53;;;;;;;21.92;9.02;;;;;;;;;;4991430;28;20542;-47
2023/09/24 07:48:19;;;;;;;37.45;10.65;;;;;;;;;;4985648;28;20087;-48
2023/09/24 07:50:53;;;;;;;18.10;7.97;;;;;;;;;;4982252;28;20045;-49
2023/09/24 07:53:19;;;;;;;14.32;7.15;;;;;;;;;;5015688;28;20073;-46
2023/09/24 07:55:45;;;;;;;16.48;8.20;;;;;;;;;;5005432;28;20030;-48
2023/09/24 07:58:11;;;;;;;14.35;7.53;;;;;;;;;;4994920;28;20457;-52
2023/09/24 08:00:38;;;;;;;14.10;7.07;;;;;;;;;;4984903;28;20045;-48
2023/09/24 08:03:05;;;;;;;20.38;7.20;;;;;;;;;;4988041;28;20033;-48
2023/09/24 08:05:33;;;;;;;14.77;7.65;;;;;;;;;;5010194;28;20026;-47
2023/09/24 08:07:58;;;;;;;11.57;6.63;;;;;;;;;;5014232;28;20037;-47
2023/09/24 08:10:25;;;;;;;17.50;7.25;;;;;;;;;;5022079;28;20040;-48
2023/09/24 08:12:51;;;;;;;12.00;6.47;;;;;;;;;;5007326;28;20037;-50
2023/09/24 08:15:17;;;;;;;10.68;5.97;;;;;;;;;;5014853;28;20048;-50
2023/09/24 08:17:43;;;;;;;14.30;6.30;;;;;;;;;;5019339;28;20033;-51
2023/09/24 08:20:09;;;;;;;12.27;6.00;;;;;;;;;;5012061;28;20378;-50
2023/09/24 08:22:35;;;;;;;12.43;6.15;;;;;;;;;;5008000;28;20181;-49
2023/09/24 08:25:01;;;;;;;12.30;5.70;;;;;;;;;;5018911;28;20033;-51
2023/09/24 08:27:27;;;;;;;16.35;6.32;;;;;;;;;;5001825;28;20525;-51
2023/09/24 08:29:54;;;;;;;14.02;5.70;;;;;;;;;;5005626;28;20025;-49
2023/09/24 08:32:20;;;;;;;16.75;6.03;;;;;;;;;;4997611;28;20541;-48
2023/09/24 08:34:46;;;;;;;13.65;5.90;;;;;;;;;;5005325;28;20040;-47
2023/09/24 08:37:12;;;;;;;16.38;8.07;;;;;;;;;;5025341;28;20381;-53
2023/09/24 08:39:38;;;;;;;15.85;6.38;;;;;;;;;;5003887;28;20128;-47
2023/09/24 08:42:05;;;;;;;10.52;5.40;;;;;;;;;;5006562;28;20057;-48
2023/09/24 08:44:31;;;;;;;14.70;5.03;;;;;;;;;;5016909;28;20034;-55
2023/09/24 08:46:58;;;;;;;10.82;5.32;;;;;;;;;;5030198;28;20040;-57
2023/09/24 08:49:26;;;;;;;12.80;5.57;;;;;;;;;;5012696;28;20018;-56
2023/09/24 08:51:52;;;;;;;11.90;5.40;;;;;;;;;;4995401;28;20533;-56
2023/09/24 08:54:18;;;;;;;14.15;5.20;;;;;;;;;;4995512;28;20049;-56
2023/09/24 08:56:44;;;;;;;10.35;5.00;;;;;;;;;;5024544;28;20033;-56
2023/09/24 08:59:10;;;;;;;14.57;5.78;;;;;;;;;;5016735;28;20030;-54
2023/09/24 09:01:36;;;;;;;14.63;4.63;;;;;;;;;;5023369;28;20041;-55
2023/09/24 09:04:02;;;;;;;11.45;4.72;;;;;;;;;;5021535;28;20045;-55
2023/09/24 09:06:31;;;;;;;11.10;4.45;;;;;;;;;;5030286;28;20052;-57
2023/09/24 09:08:57;;;;;;;12.15;4.35;;;;;;;;;;5054591;28;20048;-53
2023/09/24 09:11:36;;;;;;;20.23;6.18;;;;;;;;;;5016948;28;20089;-57
2023/09/24 09:14:02;;;;;;;10.25;4.57;;;;;;;;;;4987723;28;20470;-56
2023/09/24 09:16:28;;;;;;;13.05;4.10;;;;;;;;;;4995960;28;20092;-56
2023/09/24 09:19:01;;;;;;;14.50;4.90;;;;;;;;;;5009283;28;20021;-56
2023/09/24 09:21:27;;;;;;;11.77;4.13;;;;;;;;;;5013673;28;20400;-56
2023/09/24 09:23:53;;;;;;;11.73;4.47;;;;;;;;;;5021112;28;20288;-55
2023/09/24 09:26:26;;;;;;;10.98;4.80;;;;;;;;;;5028494;28;20041;-55
2023/09/24 09:28:52;;;;;;;11.68;4.38;;;;;;;;;;5016009;28;20030;-55
2023/09/24 09:31:18;;;;;;;9.90;4.30;;;;;;;;;;5005831;28;20440;-53
2023/09/24 09:33:45;;;;;;;15.05;4.40;;;;;;;;;;5023872;28;20038;-56
2023/09/24 09:36:22;;;;;;;12.82;4.03;;;;;;;;;;5004300;28;20034;-54
2023/09/24 09:38:48;;;;;;;11.57;3.95;;;;;;;;;;5000573;28;20037;-55
2023/09/24 09:41:17;;;;;;;13.63;4.22;;;;;;;;;;5015091;28;20104;-57
2023/09/24 09:43:43;;;;;;;14.27;3.50;;;;;;;;;;5004033;28;20026;-56
2023/09/24 09:46:10;;;;;;;12.55;3.80;;;;;;;;;;4999186;28;20379;-54
2023/09/24 09:48:38;;;;;;;12.93;4.00;;;;;;;;;;5014041;28;20049;-56
2023/09/24 09:51:07;;;;;;;13.55;3.90;;;;;;;;;;5008722;28;20037;-56
2023/09/24 09:53:34;;;;;;;10.27;3.58;;;;;;;;;;5012976;28;20041;-49
2023/09/24 09:56:01;;;;;;;9.82;2.60;;;;;;;;;;5019780;28;20033;-52
2023/09/24 09:58:29;;;;;;;6.22;2.58;;;;;;;;;;5024534;28;20045;-48
2023/09/24 10:00:55;;;;;;;7.13;2.30;;;;;;;;;;5020098;28;20038;-52
2023/09/24 10:03:22;;;;;;;11.82;3.08;;;;;;;;;;5019084;28;20457;-58
2023/09/24 10:05:48;;;;;;;11.60;3.15;;;;;;;;;;5025388;28;20045;-57
2023/09/24 10:08:33;;;;;;;8.63;3.10;;;;;;;;;;5017874;28;20045;-57
2023/09/24 10:11:00;;;;;;;9.20;2.17;;;;;;;;;;5018514;28;20494;-57
2023/09/24 10:13:44;;;;;;;6.97;2.47;;;;;;;;;;5020225;28;20602;-56
2023/09/24 10:16:37;;;;;;;7.95;2.05;;;;;;;;;;5023161;28;20038;-55
2023/09/24 10:19:13;;;;;;;10.35;2.40;;;;;;;;;;5022733;28;20029;-59
2023/09/24 10:21:42;;;;;;;14.50;2.20;;;;;;;;;;5024660;28;20098;-54
2023/09/24 10:24:14;;;;;;;6.57;2.00;;;;;;;;;;5033008;28;20595;-56
2023/09/24 10:27:01;;;;;;;6.32;2.05;;;;;;;;;;5027557;28;20030;-58
2023/09/24 10:29:45;;;;;;;7.93;2.10;;;;;;;;;;5024750;28;20116;-58
2023/09/24 10:32:17;;;;;;;6.13;1.77;;;;;;;;;;5016003;28;20366;-55
2023/09/24 10:34:55;;;;;;;8.95;1.95;;;;;;;;;;5019216;28;20029;-57
2023/09/24 10:37:29;;;;;;;7.72;1.50;;;;;;;;;;5019094;28;20030;-56
2023/09/24 10:39:58;;;;;;;8.25;1.50;;;;;;;;;;5031707;28;20144;-57
2023/09/24 10:42:25;;;;;;;7.82;1.70;;;;;;;;;;5026967;28;20396;-58
2023/09/24 10:45:10;;;;;;;6.55;1.63;;;;;;;;;;5030649;28;20493;-55
2023/09/24 10:47:40;;;;;;;6.72;1.90;;;;;;;;;;5034942;28;20104;-58
2023/09/24 10:50:19;;;;;;;5.35;1.60;;;;;;;;;;5031719;28;20503;-58
2023/09/24 10:52:49;;;;;;;4.75;1.70;;;;;;;;;;5038280;28;20037;-57
2023/09/24 10:55:15;;;;;;;4.18;1.40;;;;;;;;;;5023048;28;20033;-55
2023/09/24 10:57:45;;;;;;;7.70;1.63;;;;;;;;;;5022693;28;20148;-58
2023/09/24 11:00:16;;;;;;;7.72;1.50;;;;;;;;;;5025843;28;20497;-57
2023/09/24 11:02:42;;;;;;;5.18;1.70;;;;;;;;;;5024355;28;20037;-56
2023/09/24 11:05:08;;;;;;;5.15;1.60;;;;;;;;;;5016485;28;20076;-56
2023/09/24 11:07:34;;;;;;;2.83;1.23;;;;;;;;;;5038990;28;20037;-57
2023/09/24 11:10:00;;;;;;;12.52;1.73;;;;;;;;;;5022548;28;20116;-53
2023/09/24 11:12:26;;;;;;;5.65;1.55;;;;;;;;;;5026892;28;20052;-54
2023/09/24 11:14:56;;;;;;;8.10;2.47;;;;;;;;;;5002525;28;20038;-49
2023/09/24 11:17:22;;;;;;;22.48;11.80;;;;;;;;;;5002889;28;20556;-47
2023/09/24 11:19:48;;;;;;;5.10;1.38;;;;;;;;;;5007938;28;20065;-55
2023/09/24 11:22:15;;;;;;;7.28;1.50;;;;;;;;;;4997921;28;20436;-50
2023/09/24 11:24:41;;;;;;;11.55;1.80;;;;;;;;;;5025966;28;20029;-49
2023/09/24 11:27:07;;;;;;;5.47;1.50;;;;;;;;;;5023452;28;21454;-53
2023/09/24 11:29:34;;;;;;;6.85;1.58;;;;;;;;;;5029267;28;20443;-47
2023/09/24 11:32:00;;;;;;;14.73;2.13;;;;;;;;;;5027903;28;20079;-50
2023/09/24 11:34:28;;;;;;;4.70;1.55;;;;;;;;;;5019446;28;20424;-51
2023/09/24 11:36:57;;;;;;;7.07;1.52;;;;;;;;;;5003206;28;20048;-54
2023/09/24 11:39:23;;;;;;;5.65;1.77;;;;;;;;;;5004739;28;20062;-52
2023/09/24 11:41:50;;;;;;;5.80;1.80;;;;;;;;;;5003769;28;20524;-53
2023/09/24 11:44:16;;;;;;;5.57;1.60;;;;;;;;;;4999766;28;20040;-54
2023/09/24 11:46:43;;;;;;;4.88;1.60;;;;;;;;;;5009583;28;20046;-52
2023/09/24 11:49:09;;;;;;;5.55;1.45;;;;;;;;;;5010146;28;20730;-51
2023/09/24 11:51:35;;;;;;;6.07;1.65;;;;;;;;;;5001865;28;20026;-51
2023/09/24 11:54:02;;;;;;;7.25;1.90;;;;;;;;;;4999008;28;20080;-49
2023/09/24 11:56:28;;;;;;;7.97;1.80;;;;;;;;;;5012019;28;20026;-52
2023/09/24 11:58:55;;;;;;;6.40;1.45;;;;;;;;;;4996916;28;20034;-50
2023/09/24 12:01:21;;;;;;;7.03;1.90;;;;;;;;;;4993921;28;23014;-54
2023/09/24 12:03:49;;;;;;;7.78;1.85;;;;;;;;;;5020175;28;20039;-51
2023/09/24 12:06:15;;;;;;;5.90;1.80;;;;;;;;;;5018495;28;20060;-52
2023/09/24 12:08:41;;;;;;;7.93;1.73;;;;;;;;;;5026497;28;20190;-52
2023/09/24 12:11:07;;;;;;;6.97;1.90;;;;;;;;;;5025930;28;20048;-50
2023/09/24 12:13:33;;;;;;;6.97;1.80;;;;;;;;;;5018910;28;20226;-49
2023/09/24 12:15:59;;;;;;;4.18;1.70;;;;;;;;;;5004520;28;20025;-52
2023/09/24 12:18:25;;;;;;;4.38;1.30;;;;;;;;;;5011473;28;20827;-52
2023/09/24 12:20:51;;;;;;;5.55;1.75;;;;;;;;;;5002736;28;20038;-50
2023/09/24 12:23:17;;;;;;;5.47;1.80;;;;;;;;;;4987342;28;20057;-54
2023/09/24 12:25:44;;;;;;;4.88;1.30;;;;;;;;;;5004717;28;20397;-52
2023/09/24 12:28:13;;;;;;;6.55;1.73;;;;;;;;;;5021696;28;20044;-53
2023/09/24 12:30:39;;;;;;;4.10;1.70;;;;;;;;;;5008750;28;20034;-53
2023/09/24 12:33:06;;;;;;;7.28;2.05;;;;;;;;;;5020469;28;20040;-49
2023/09/24 12:35:32;;;;;;;6.10;1.77;;;;;;;;;;5005755;28;20109;-54
2023/09/24 12:37:58;;;;;;;6.53;1.75;;;;;;;;;;5032542;28;20493;-49
2023/09/24 12:40:25;;;;;;;8.82;1.70;;;;;;;;;;5029168;28;20104;-50
2023/09/24 12:42:51;;;;;;;6.25;1.50;;;;;;;;;;5026500;28;20040;-49
2023/09/24 12:45:17;;;;;;;5.53;1.83;;;;;;;;;;5019651;28;20064;-48
2023/09/24 12:47:43;;;;;;;5.07;1.55;;;;;;;;;;5025329;28;20060;-50
2023/09/24 12:50:10;;;;;;;4.95;1.65;;;;;;;;;;5026709;28;20037;-51
2023/09/24 12:52:38;;;;;;;8.63;1.50;;;;;;;;;;5026631;28;20655;-50
2023/09/24 12:55:06;;;;;;;5.68;1.73;;;;;;;;;;5020887;28;20513;-51
2023/09/24 12:57:32;;;;;;;6.80;1.80;;;;;;;;;;5032807;28;20441;-48
2023/09/24 12:59:58;;;;;;;5.35;1.92;;;;;;;;;;5026530;28;20037;-52
2023/09/24 13:02:25;;;;;;;9.80;3.47;;;;;;;;;;5026390;28;20041;-53
2023/09/24 13:04:51;;;;;;;3.92;1.83;;;;;;;;;;5015422;28;20041;-50
2023/09/24 13:07:17;;;;;;;5.40;1.60;;;;;;;;;;5031723;28;20068;-51
2023/09/24 13:09:43;;;;;;;9.18;1.85;;;;;;;;;;5018346;28;20053;-52
2023/09/24 13:12:11;;;;;;;3.78;1.58;;;;;;;;;;5013217;28;20041;-48
2023/09/24 13:14:37;;;;;;;6.03;1.50;;;;;;;;;;5018498;28;20469;-52
2023/09/24 13:17:03;;;;;;;4.30;1.42;;;;;;;;;;5021954;28;20095;-54
2023/09/24 13:19:30;;;;;;;7.07;1.85;;;;;;;;;;5024813;28;20129;-49
2023/09/24 13:21:56;;;;;;;7.18;1.63;;;;;;;;;;5027317;28;20124;-49
2023/09/24 13:24:22;;;;;;;4.90;1.35;;;;;;;;;;5014197;28;20110;-50
2023/09/24 13:26:48;;;;;;;5.88;1.33;;;;;;;;;;5000868;28;20089;-49
2023/09/24 13:29:14;;;;;;;3.83;1.50;;;;;;;;;;5004116;28;20022;-49
2023/09/24 13:31:40;;;;;;;6.78;1.52;;;;;;;;;;5016369;28;20041;-52
2023/09/24 13:34:07;;;;;;;3.53;1.33;;;;;;;;;;5022941;28;20087;-50
2023/09/24 13:36:36;;;;;;;6.22;1.35;;;;;;;;;;5025069;28;20519;-49
2023/09/24 13:39:02;;;;;;;3.53;1.42;;;;;;;;;;5029113;28;20137;-52
2023/09/24 13:41:29;;;;;;;5.78;1.60;;;;;;;;;;5016582;28;20669;-47
2023/09/24 13:43:55;;;;;;;5.50;1.20;;;;;;;;;;4987360;28;20037;-51
2023/09/24 13:46:21;;;;;;;3.28;1.35;;;;;;;;;;5014445;28;21109;-48
2023/09/24 13:48:49;;;;;;;3.80;1.42;;;;;;;;;;5019269;28;20052;-46
2023/09/24 13:51:15;;;;;;;5.38;1.13;;;;;;;;;;5019096;28;20026;-51
2023/09/24 13:53:42;;;;;;;2.63;1.10;;;;;;;;;;5019285;28;20040;-50
2023/09/24 13:56:12;;;;;;;2.58;1.10;;;;;;;;;;5018530;28;20398;-50
2023/09/24 13:58:38;;;;;;;3.97;1.33;;;;;;;;;;5025398;28;20041;-50
2023/09/24 14:01:04;;;;;;;2.03;0.93;;;;;;;;;;5024799;28;20037;-50
2023/09/24 14:03:31;;;;;;;7.30;1.40;;;;;;;;;;5024542;28;20090;-49
2023/09/24 14:05:57;;;;;;;2.92;1.23;;;;;;;;;;5020542;28;20195;-48
2023/09/24 14:13:53;;;;;;;6.18;2.40;;;;;;;;;;5026359;28;20558;-52
2023/09/24 14:16:19;;;;;;;3.95;1.20;;;;;;;;;;5010138;28;20481;-53
2023/09/24 14:18:45;;;;;;;6.45;1.58;;;;;;;;;;5018466;28;20041;-50
2023/09/24 14:21:11;;;;;;;2.47;1.40;;;;;;;;;;5024119;28;20030;-54
2023/09/24 14:23:37;;;;;;;4.47;1.27;;;;;;;;;;5014732;28;20025;-51
2023/09/24 14:26:04;;;;;;;5.25;1.35;;;;;;;;;;5026551;28;20377;-54
2023/09/24 14:28:31;;;;;;;5.45;1.40;;;;;;;;;;5024954;28;20047;-53
2023/09/24 14:30:57;;;;;;;4.72;1.55;;;;;;;;;;5021790;28;20060;-52
2023/09/24 14:33:23;;;;;;;6.55;1.65;;;;;;;;;;5025653;28;20485;-53
2023/09/24 14:35:56;;;;;;;5.20;1.55;;;;;;;;;;5023869;28;20029;-54
2023/09/24 14:38:22;;;;;;;5.50;2.00;;;;;;;;;;5018290;28;20037;-53
2023/09/24 14:40:48;;;;;;;4.45;1.88;;;;;;;;;;5022881;28;20121;-52